sensor_id;sensor_type;location;lat;lon;timestamp;noise_LAeq;noise_LA_min;noise_LA_max;noise_LA01;noise_LA95
37833;Laerm;23678;48.778;9.160;2024-01-10T00:00:04;36.86;31.68;40.98;;
37833;Laerm;23678;48.778;9.160;2024-01-10T00:02:49;36.84;30.89;40.53;;
37833;Laerm;23678;48.778;9.160;2024-01-10T00:05:33;36.78;29.92;39.70;;
37833;Laerm;23678;48.778;9.160;2024-01-10T00:08:16;36.88;26.91;39.92;;
37833;Laerm;23678;48.778;9.160;2024-01-10T00:11:01;36.92;29.57;39.81;;
37833;Laerm;23678;48.778;9.160;2024-01-10T00:13:45;36.85;30.89;39.81;;
37833;Laerm;23678;48.778;9.160;2024-01-10T00:16:29;36.72;30.89;40.03;;
37833;Laerm;23678;48.778;9.160;2024-01-10T00:19:13;36.72;28.67;40.03;;
37833;Laerm;23678;48.778;9.160;2024-01-10T00:21:57;36.91;29.92;39.81;;
37833;Laerm;23678;48.778;9.160;2024-01-10T00:24:41;36.86;29.92;40.33;;
37833;Laerm;23678;48.778;9.160;2024-01-10T00:27:25;38.00;30.89;42.59;;
37833;Laerm;23678;48.778;9.160;2024-01-10T00:30:09;36.97;29.92;40.71;;
37833;Laerm;23678;48.778;9.160;2024-01-10T00:32:53;36.84;30.89;40.43;;
37833;Laerm;23678;48.778;9.160;2024-01-10T00:35:36;36.77;29.92;39.70;;
37833;Laerm;23678;48.778;9.160;2024-01-10T00:38:20;36.90;30.89;39.70;;
37833;Laerm;23678;48.778;9.160;2024-01-10T00:41:04;36.78;30.89;39.92;;
37833;Laerm;23678;48.778;9.160;2024-01-10T00:43:48;36.85;29.92;40.23;;
37833;Laerm;23678;48.778;9.160;2024-01-10T00:46:32;36.73;30.89;39.92;;
37833;Laerm;23678;48.778;9.160;2024-01-10T00:49:16;38.11;30.89;47.57;;
37833;Laerm;23678;48.778;9.160;2024-01-10T00:52:00;36.78;29.92;40.03;;
37833;Laerm;23678;48.778;9.160;2024-01-10T00:54:44;36.74;30.89;39.92;;
37833;Laerm;23678;48.778;9.160;2024-01-10T00:57:29;36.70;29.92;39.81;;
37833;Laerm;23678;48.778;9.160;2024-01-10T01:00:13;36.83;30.89;42.47;;
37833;Laerm;23678;48.778;9.160;2024-01-10T01:02:57;36.77;29.92;39.58;;
37833;Laerm;23678;48.778;9.160;2024-01-10T01:05:41;36.79;30.89;39.81;;
37833;Laerm;23678;48.778;9.160;2024-01-10T01:08:25;36.77;30.89;39.81;;
37833;Laerm;23678;48.778;9.160;2024-01-10T01:11:09;38.21;29.92;48.10;;
37833;Laerm;23678;48.778;9.160;2024-01-10T01:13:53;36.74;29.92;39.58;;
37833;Laerm;23678;48.778;9.160;2024-01-10T01:16:37;36.71;28.67;39.46;;
37833;Laerm;23678;48.778;9.160;2024-01-10T01:19:21;36.70;29.92;39.58;;
37833;Laerm;23678;48.778;9.160;2024-01-10T01:22:05;36.71;28.67;39.70;;
37833;Laerm;23678;48.778;9.160;2024-01-10T01:24:49;36.74;28.67;39.46;;
37833;Laerm;23678;48.778;9.160;2024-01-10T01:27:33;36.72;28.32;39.46;;
37833;Laerm;23678;48.778;9.160;2024-01-10T01:30:17;36.68;30.89;39.70;;
37833;Laerm;23678;48.778;9.160;2024-01-10T01:33:01;36.71;29.92;39.58;;
37833;Laerm;23678;48.778;9.160;2024-01-10T01:35:48;36.73;30.89;39.81;;
37833;Laerm;23678;48.778;9.160;2024-01-10T01:38:32;37.73;30.89;44.73;;
37833;Laerm;23678;48.778;9.160;2024-01-10T01:41:16;42.68;30.89;59.59;;
37833;Laerm;23678;48.778;9.160;2024-01-10T01:44:00;37.05;30.89;43.34;;
37833;Laerm;23678;48.778;9.160;2024-01-10T01:46:44;36.73;28.67;39.70;;
37833;Laerm;23678;48.778;9.160;2024-01-10T01:49:29;36.70;30.89;39.70;;
37833;Laerm;23678;48.778;9.160;2024-01-10T01:52:14;37.19;31.68;41.61;;
37833;Laerm;23678;48.778;9.160;2024-01-10T01:54:58;38.40;28.67;46.33;;
37833;Laerm;23678;48.778;9.160;2024-01-10T01:57:42;36.77;28.67;39.70;;
37833;Laerm;23678;48.778;9.160;2024-01-10T02:00:26;36.72;28.67;39.92;;
37833;Laerm;23678;48.778;9.160;2024-01-10T02:03:10;36.78;26.91;39.58;;
37833;Laerm;23678;48.778;9.160;2024-01-10T02:05:54;36.80;28.67;39.92;;
37833;Laerm;23678;48.778;9.160;2024-01-10T02:08:38;36.74;30.89;39.70;;
37833;Laerm;23678;48.778;9.160;2024-01-10T02:11:22;36.67;29.92;39.70;;
37833;Laerm;23678;48.778;9.160;2024-01-10T02:14:07;36.72;29.92;39.92;;
37833;Laerm;23678;48.778;9.160;2024-01-10T02:16:51;38.58;30.89;51.63;;
37833;Laerm;23678;48.778;9.160;2024-01-10T02:19:35;37.73;31.68;51.19;;
37833;Laerm;23678;48.778;9.160;2024-01-10T02:22:19;36.91;28.67;40.80;;
37833;Laerm;23678;48.778;9.160;2024-01-10T02:25:04;37.42;31.68;41.46;;
37833;Laerm;23678;48.778;9.160;2024-01-10T02:27:49;36.76;28.67;39.70;;
37833;Laerm;23678;48.778;9.160;2024-01-10T02:30:33;38.49;29.92;53.19;;
37833;Laerm;23678;48.778;9.160;2024-01-10T02:33:17;36.84;30.89;39.46;;
37833;Laerm;23678;48.778;9.160;2024-01-10T02:36:01;38.13;29.92;51.76;;
37833;Laerm;23678;48.778;9.160;2024-01-10T02:38:45;36.78;28.67;39.70;;
37833;Laerm;23678;48.778;9.160;2024-01-10T02:41:32;37.03;30.89;41.89;;
37833;Laerm;23678;48.778;9.160;2024-01-10T02:44:16;36.76;31.68;39.81;;
37833;Laerm;23678;48.778;9.160;2024-01-10T02:47:01;36.99;30.89;41.06;;
37833;Laerm;23678;48.778;9.160;2024-01-10T02:49:45;38.19;29.92;49.94;;
37833;Laerm;23678;48.778;9.160;2024-01-10T02:52:29;36.81;29.92;40.23;;
37833;Laerm;23678;48.778;9.160;2024-01-10T02:55:13;36.80;31.68;39.81;;
37833;Laerm;23678;48.778;9.160;2024-01-10T02:57:57;36.96;31.68;39.70;;
37833;Laerm;23678;48.778;9.160;2024-01-10T03:00:41;36.91;30.89;39.81;;
37833;Laerm;23678;48.778;9.160;2024-01-10T03:03:25;36.83;30.89;40.98;;
37833;Laerm;23678;48.778;9.160;2024-01-10T03:06:09;36.81;29.92;39.92;;
37833;Laerm;23678;48.778;9.160;2024-01-10T03:08:54;36.98;30.89;44.97;;
37833;Laerm;23678;48.778;9.160;2024-01-10T03:11:38;36.84;30.89;39.68;;
37833;Laerm;23678;48.778;9.160;2024-01-10T03:14:22;39.22;31.68;46.73;;
37833;Laerm;23678;48.778;9.160;2024-01-10T03:17:06;37.96;28.67;45.07;;
37833;Laerm;23678;48.778;9.160;2024-01-10T03:19:50;37.02;31.68;40.33;;
37833;Laerm;23678;48.778;9.160;2024-01-10T03:22:34;36.91;28.67;40.13;;
37833;Laerm;23678;48.778;9.160;2024-01-10T03:25:18;37.52;30.89;41.03;;
37833;Laerm;23678;48.778;9.160;2024-01-10T03:28:02;37.10;31.68;40.13;;
37833;Laerm;23678;48.778;9.160;2024-01-10T03:30:46;38.69;31.68;43.86;;
37833;Laerm;23678;48.778;9.160;2024-01-10T03:33:30;37.76;31.68;41.26;;
37833;Laerm;23678;48.778;9.160;2024-01-10T03:36:15;37.81;31.68;44.35;;
37833;Laerm;23678;48.778;9.160;2024-01-10T03:38:59;39.84;33.44;44.47;;
37833;Laerm;23678;48.778;9.160;2024-01-10T03:41:46;37.68;29.92;41.22;;
37833;Laerm;23678;48.778;9.160;2024-01-10T03:44:30;38.99;31.68;53.69;;
37833;Laerm;23678;48.778;9.160;2024-01-10T03:47:14;37.43;32.35;40.63;;
37833;Laerm;23678;48.778;9.160;2024-01-10T03:49:58;37.50;31.68;41.53;;
37833;Laerm;23678;48.778;9.160;2024-01-10T03:52:43;37.46;30.89;40.43;;
37833;Laerm;23678;48.778;9.160;2024-01-10T03:55:27;37.56;32.35;41.75;;
37833;Laerm;23678;48.778;9.160;2024-01-10T03:58:11;37.67;30.89;40.71;;
37833;Laerm;23678;48.778;9.160;2024-01-10T04:00:55;38.41;31.68;42.47;;
37833;Laerm;23678;48.778;9.160;2024-01-10T04:03:39;38.15;31.68;41.89;;
37833;Laerm;23678;48.778;9.160;2024-01-10T04:06:26;37.66;32.93;40.62;;
37833;Laerm;23678;48.778;9.160;2024-01-10T04:09:11;37.71;32.35;40.53;;
37833;Laerm;23678;48.778;9.160;2024-01-10T04:11:56;37.94;32.35;43.72;;
37833;Laerm;23678;48.778;9.160;2024-01-10T04:14:40;37.86;30.89;42.35;;
37833;Laerm;23678;48.778;9.160;2024-01-10T04:17:24;38.95;30.89;52.94;;
37833;Laerm;23678;48.778;9.160;2024-01-10T04:20:08;37.89;31.68;41.82;;
37833;Laerm;23678;48.778;9.160;2024-01-10T04:22:53;37.60;31.68;40.43;;
37833;Laerm;23678;48.778;9.160;2024-01-10T04:25:37;37.90;32.93;42.29;;
37833;Laerm;23678;48.778;9.160;2024-01-10T04:28:21;37.59;31.68;40.53;;
37833;Laerm;23678;48.778;9.160;2024-01-10T04:31:05;37.75;31.68;40.71;;
37833;Laerm;23678;48.778;9.160;2024-01-10T04:33:49;37.79;32.93;41.68;;
37833;Laerm;23678;48.778;9.160;2024-01-10T04:36:32;37.86;31.68;41.06;;
37833;Laerm;23678;48.778;9.160;2024-01-10T04:39:16;38.23;32.35;45.75;;
37833;Laerm;23678;48.778;9.160;2024-01-10T04:42:01;37.73;30.89;40.71;;
37833;Laerm;23678;48.778;9.160;2024-01-10T04:44:45;39.44;32.35;47.36;;
37833;Laerm;23678;48.778;9.160;2024-01-10T04:47:29;38.56;28.67;48.94;;
37833;Laerm;23678;48.778;9.160;2024-01-10T04:50:14;37.74;31.68;41.38;;
37833;Laerm;23678;48.778;9.160;2024-01-10T04:52:58;38.00;32.35;43.34;;
37833;Laerm;23678;48.778;9.160;2024-01-10T04:55:42;38.48;32.35;45.07;;
37833;Laerm;23678;48.778;9.160;2024-01-10T04:58:26;38.08;32.35;42.65;;
37833;Laerm;23678;48.778;9.160;2024-01-10T05:01:10;38.00;32.93;41.30;;
37833;Laerm;23678;48.778;9.160;2024-01-10T05:03:54;38.77;32.35;48.58;;
37833;Laerm;23678;48.778;9.160;2024-01-10T05:06:37;37.80;32.93;41.68;;
37833;Laerm;23678;48.778;9.160;2024-01-10T05:09:21;38.42;32.93;43.54;;
37833;Laerm;23678;48.778;9.160;2024-01-10T05:12:05;41.73;32.35;57.08;;
37833;Laerm;23678;48.778;9.160;2024-01-10T05:14:49;39.80;30.89;57.06;;
37833;Laerm;23678;48.778;9.160;2024-01-10T05:17:33;40.14;32.35;50.70;;
37833;Laerm;23678;48.778;9.160;2024-01-10T05:20:17;38.17;33.44;46.02;;
37833;Laerm;23678;48.778;9.160;2024-01-10T05:23:01;40.00;34.69;44.83;;
37833;Laerm;23678;48.778;9.160;2024-01-10T05:25:45;39.76;33.44;50.10;;
37833;Laerm;23678;48.778;9.160;2024-01-10T05:28:29;38.22;33.44;41.75;;
37833;Laerm;23678;48.778;9.160;2024-01-10T05:31:13;38.29;32.93;40.98;;
37833;Laerm;23678;48.778;9.160;2024-01-10T05:33:57;38.92;34.31;46.78;;
37833;Laerm;23678;48.778;9.160;2024-01-10T05:36:41;39.49;32.93;51.53;;
37833;Laerm;23678;48.778;9.160;2024-01-10T05:39:25;39.51;32.35;49.35;;
37833;Laerm;23678;48.778;9.160;2024-01-10T05:42:09;40.78;33.90;50.16;;
37833;Laerm;23678;48.778;9.160;2024-01-10T05:44:54;42.11;35.66;52.13;;
37833;Laerm;23678;48.778;9.160;2024-01-10T05:47:38;41.28;33.90;51.04;;
37833;Laerm;23678;48.778;9.160;2024-01-10T05:50:22;40.02;35.36;50.01;;
37833;Laerm;23678;48.778;9.160;2024-01-10T05:53:06;41.91;33.44;58.42;;
37833;Laerm;23678;48.778;9.160;2024-01-10T05:55:52;39.87;33.44;51.32;;
37833;Laerm;23678;48.778;9.160;2024-01-10T05:58:36;39.65;34.31;47.50;;
37833;Laerm;23678;48.778;9.160;2024-01-10T06:01:20;39.75;33.90;46.38;;
37833;Laerm;23678;48.778;9.160;2024-01-10T06:04:04;39.63;34.69;52.19;;
37833;Laerm;23678;48.778;9.160;2024-01-10T06:06:49;39.17;32.35;50.00;;
37833;Laerm;23678;48.778;9.160;2024-01-10T06:09:33;39.81;33.90;49.71;;
37833;Laerm;23678;48.778;9.160;2024-01-10T06:12:16;39.54;33.44;46.84;;
37833;Laerm;23678;48.778;9.160;2024-01-10T06:15:02;39.30;33.90;51.62;;
37833;Laerm;23678;48.778;9.160;2024-01-10T06:17:46;40.94;35.04;49.75;;
37833;Laerm;23678;48.778;9.160;2024-01-10T06:20:31;41.60;35.36;50.51;;
37833;Laerm;23678;48.778;9.160;2024-01-10T06:23:15;40.40;33.90;51.11;;
37833;Laerm;23678;48.778;9.160;2024-01-10T06:25:59;39.66;33.44;50.56;;
37833;Laerm;23678;48.778;9.160;2024-01-10T06:28:43;41.61;34.69;49.70;;
37833;Laerm;23678;48.778;9.160;2024-01-10T06:31:27;39.32;34.69;48.18;;
37833;Laerm;23678;48.778;9.160;2024-01-10T06:34:11;41.85;34.31;51.96;;
37833;Laerm;23678;48.778;9.160;2024-01-10T06:36:55;40.69;34.31;50.02;;
37833;Laerm;23678;48.778;9.160;2024-01-10T06:39:39;42.35;34.31;52.76;;
37833;Laerm;23678;48.778;9.160;2024-01-10T06:42:23;41.13;35.01;54.87;;
37833;Laerm;23678;48.778;9.160;2024-01-10T06:45:07;41.55;35.66;50.65;;
37833;Laerm;23678;48.778;9.160;2024-01-10T06:47:52;41.67;35.04;53.27;;
37833;Laerm;23678;48.778;9.160;2024-01-10T06:50:37;41.63;34.69;51.80;;
37833;Laerm;23678;48.778;9.160;2024-01-10T06:53:21;42.19;33.90;54.08;;
37833;Laerm;23678;48.778;9.160;2024-01-10T06:56:05;41.31;35.36;51.93;;
37833;Laerm;23678;48.778;9.160;2024-01-10T06:58:50;40.27;33.90;49.84;;
37833;Laerm;23678;48.778;9.160;2024-01-10T07:01:33;41.49;33.44;53.57;;
37833;Laerm;23678;48.778;9.160;2024-01-10T07:04:17;42.21;33.90;49.45;;
37833;Laerm;23678;48.778;9.160;2024-01-10T07:07:01;40.82;34.31;48.40;;
37833;Laerm;23678;48.778;9.160;2024-01-10T07:09:46;41.26;34.69;57.47;;
37833;Laerm;23678;48.778;9.160;2024-01-10T07:12:30;40.18;33.90;49.12;;
37833;Laerm;23678;48.778;9.160;2024-01-10T07:15:15;40.50;32.35;52.84;;
37833;Laerm;23678;48.778;9.160;2024-01-10T07:17:59;40.44;33.90;50.56;;
37833;Laerm;23678;48.778;9.160;2024-01-10T07:20:43;41.47;33.44;49.29;;
37833;Laerm;23678;48.778;9.160;2024-01-10T07:23:27;40.22;33.90;49.18;;
37833;Laerm;23678;48.778;9.160;2024-01-10T07:26:12;40.90;33.90;50.55;;
37833;Laerm;23678;48.778;9.160;2024-01-10T07:28:57;40.47;34.69;46.28;;
37833;Laerm;23678;48.778;9.160;2024-01-10T07:31:41;40.13;34.69;48.15;;
37833;Laerm;23678;48.778;9.160;2024-01-10T07:34:25;40.75;35.36;50.15;;
37833;Laerm;23678;48.778;9.160;2024-01-10T07:37:08;42.24;35.66;52.76;;
37833;Laerm;23678;48.778;9.160;2024-01-10T07:39:54;41.47;33.44;50.92;;
37833;Laerm;23678;48.778;9.160;2024-01-10T07:42:39;42.05;33.44;52.32;;
37833;Laerm;23678;48.778;9.160;2024-01-10T07:45:24;41.16;35.94;49.83;;
37833;Laerm;23678;48.778;9.160;2024-01-10T07:48:07;38.65;33.55;44.12;;
37833;Laerm;23678;48.778;9.160;2024-01-10T07:50:51;39.55;31.68;46.97;;
37833;Laerm;23678;48.778;9.160;2024-01-10T07:53:36;40.34;34.31;54.41;;
37833;Laerm;23678;48.778;9.160;2024-01-10T07:56:20;40.70;34.69;56.09;;
37833;Laerm;23678;48.778;9.160;2024-01-10T07:59:04;41.69;35.36;54.11;;
37833;Laerm;23678;48.778;9.160;2024-01-10T08:01:54;40.59;33.90;49.19;;
37833;Laerm;23678;48.778;9.160;2024-01-10T08:04:40;40.36;33.90;57.59;;
37833;Laerm;23678;48.778;9.160;2024-01-10T08:07:24;39.18;32.93;50.35;;
37833;Laerm;23678;48.778;9.160;2024-01-10T08:10:09;41.85;35.59;52.08;;
37833;Laerm;23678;48.778;9.160;2024-01-10T08:12:53;40.23;34.31;49.95;;
37833;Laerm;23678;48.778;9.160;2024-01-10T08:15:37;41.98;34.31;49.02;;
37833;Laerm;23678;48.778;9.160;2024-01-10T08:18:21;40.11;33.90;51.76;;
37833;Laerm;23678;48.778;9.160;2024-01-10T08:21:05;40.39;34.31;50.56;;
37833;Laerm;23678;48.778;9.160;2024-01-10T08:23:49;41.89;33.90;54.85;;
37833;Laerm;23678;48.778;9.160;2024-01-10T08:26:33;40.43;34.31;51.16;;
37833;Laerm;23678;48.778;9.160;2024-01-10T08:29:17;38.67;33.90;48.63;;
37833;Laerm;23678;48.778;9.160;2024-01-10T08:32:02;39.23;33.90;55.72;;
37833;Laerm;23678;48.778;9.160;2024-01-10T08:34:47;41.30;35.94;52.85;;
37833;Laerm;23678;48.778;9.160;2024-01-10T08:37:32;40.43;34.69;47.78;;
37833;Laerm;23678;48.778;9.160;2024-01-10T08:40:19;41.41;35.36;48.23;;
37833;Laerm;23678;48.778;9.160;2024-01-10T08:43:04;40.50;35.36;46.50;;
37833;Laerm;23678;48.778;9.160;2024-01-10T08:45:48;41.14;33.90;55.49;;
37833;Laerm;23678;48.778;9.160;2024-01-10T08:48:32;41.50;34.69;48.51;;
37833;Laerm;23678;48.778;9.160;2024-01-10T08:51:16;43.21;34.31;67.88;;
37833;Laerm;23678;48.778;9.160;2024-01-10T08:54:01;40.37;35.36;49.66;;
37833;Laerm;23678;48.778;9.160;2024-01-10T08:56:45;41.22;33.90;53.10;;
37833;Laerm;23678;48.778;9.160;2024-01-10T08:59:29;43.74;35.36;57.91;;
37833;Laerm;23678;48.778;9.160;2024-01-10T09:02:14;39.07;34.31;43.90;;
37833;Laerm;23678;48.778;9.160;2024-01-10T09:04:58;41.30;35.36;46.30;;
37833;Laerm;23678;48.778;9.160;2024-01-10T09:07:42;41.61;35.04;48.02;;
37833;Laerm;23678;48.778;9.160;2024-01-10T09:10:26;42.91;31.68;51.56;;
37833;Laerm;23678;48.778;9.160;2024-01-10T09:13:13;40.51;33.90;51.34;;
37833;Laerm;23678;48.778;9.160;2024-01-10T09:15:57;39.35;33.44;50.54;;
37833;Laerm;23678;48.778;9.160;2024-01-10T09:18:44;39.53;32.93;48.70;;
37833;Laerm;23678;48.778;9.160;2024-01-10T09:21:28;41.45;34.69;48.83;;
37833;Laerm;23678;48.778;9.160;2024-01-10T09:24:12;40.84;33.97;47.42;;
37833;Laerm;23678;48.778;9.160;2024-01-10T09:26:58;41.48;32.93;51.25;;
37833;Laerm;23678;48.778;9.160;2024-01-10T09:29:42;42.29;35.04;58.55;;
37833;Laerm;23678;48.778;9.160;2024-01-10T09:32:26;38.47;33.44;42.82;;
37833;Laerm;23678;48.778;9.160;2024-01-10T09:35:10;38.96;32.93;44.47;;
37833;Laerm;23678;48.778;9.160;2024-01-10T09:37:54;40.91;33.90;52.09;;
37833;Laerm;23678;48.778;9.160;2024-01-10T09:40:39;42.18;34.31;53.41;;
37833;Laerm;23678;48.778;9.160;2024-01-10T09:46:00;41.33;33.90;49.74;;
37833;Laerm;23678;48.778;9.160;2024-01-10T09:48:44;41.88;33.90;54.09;;
37833;Laerm;23678;48.778;9.160;2024-01-10T09:51:28;40.82;35.36;51.59;;
37833;Laerm;23678;48.778;9.160;2024-01-10T09:54:17;39.73;34.31;46.82;;
37833;Laerm;23678;48.778;9.160;2024-01-10T09:57:02;38.78;32.93;45.07;;
37833;Laerm;23678;48.778;9.160;2024-01-10T09:59:47;40.85;33.44;62.84;;
37833;Laerm;23678;48.778;9.160;2024-01-10T10:02:31;40.01;34.31;50.80;;
37833;Laerm;23678;48.778;9.160;2024-01-10T10:05:17;39.88;32.93;52.77;;
37833;Laerm;23678;48.778;9.160;2024-01-10T10:08:00;40.35;32.35;50.83;;
37833;Laerm;23678;48.778;9.160;2024-01-10T10:10:50;40.82;32.93;51.63;;
37833;Laerm;23678;48.778;9.160;2024-01-10T10:13:35;40.79;34.31;50.98;;
37833;Laerm;23678;48.778;9.160;2024-01-10T10:16:25;40.16;34.69;49.23;;
37833;Laerm;23678;48.778;9.160;2024-01-10T10:19:10;40.37;35.94;48.94;;
37833;Laerm;23678;48.778;9.160;2024-01-10T10:22:02;40.58;36.69;48.32;;
37833;Laerm;23678;48.778;9.160;2024-01-10T10:24:51;38.83;33.90;47.12;;
37833;Laerm;23678;48.778;9.160;2024-01-10T10:27:36;40.18;33.90;62.28;;
37833;Laerm;23678;48.778;9.160;2024-01-10T10:30:23;39.85;35.04;51.97;;
37833;Laerm;23678;48.778;9.160;2024-01-10T10:33:07;38.78;33.44;42.53;;
37833;Laerm;23678;48.778;9.160;2024-01-10T10:36:07;39.91;34.31;52.87;;
37833;Laerm;23678;48.778;9.160;2024-01-10T10:38:52;39.94;31.68;54.48;;
37833;Laerm;23678;48.778;9.160;2024-01-10T10:41:36;40.61;33.90;52.49;;
37833;Laerm;23678;48.778;9.160;2024-01-10T10:44:22;40.75;34.69;50.92;;
37833;Laerm;23678;48.778;9.160;2024-01-10T10:47:07;40.35;34.31;51.15;;
37833;Laerm;23678;48.778;9.160;2024-01-10T10:49:53;39.02;33.44;55.66;;
37833;Laerm;23678;48.778;9.160;2024-01-10T10:52:38;41.60;34.69;62.67;;
37833;Laerm;23678;48.778;9.160;2024-01-10T10:55:25;41.24;35.36;56.69;;
37833;Laerm;23678;48.778;9.160;2024-01-10T10:58:10;40.02;34.31;50.57;;
37833;Laerm;23678;48.778;9.160;2024-01-10T11:00:54;41.23;34.69;54.64;;
37833;Laerm;23678;48.778;9.160;2024-01-10T11:03:39;43.18;36.20;53.41;;
37833;Laerm;23678;48.778;9.160;2024-01-10T11:06:28;41.53;34.69;56.68;;
37833;Laerm;23678;48.778;9.160;2024-01-10T11:09:14;40.93;33.90;53.71;;
37833;Laerm;23678;48.778;9.160;2024-01-10T11:25:54;39.85;33.44;54.88;;
37833;Laerm;23678;48.778;9.160;2024-01-10T11:28:39;39.51;32.35;54.14;;
37833;Laerm;23678;48.778;9.160;2024-01-10T11:31:28;40.90;33.90;50.40;;
37833;Laerm;23678;48.778;9.160;2024-01-10T11:36:40;40.75;32.93;50.55;;
37833;Laerm;23678;48.778;9.160;2024-01-10T11:39:45;40.04;34.31;48.07;;
37833;Laerm;23678;48.778;9.160;2024-01-10T11:42:41;40.33;32.35;51.21;;
37833;Laerm;23678;48.778;9.160;2024-01-10T11:48:28;43.13;35.94;52.60;;
37833;Laerm;23678;48.778;9.160;2024-01-10T11:51:12;43.37;34.69;52.06;;
37833;Laerm;23678;48.778;9.160;2024-01-10T11:53:58;40.42;32.93;51.37;;
37833;Laerm;23678;48.778;9.160;2024-01-10T12:01:45;39.54;33.44;50.30;;
37833;Laerm;23678;48.778;9.160;2024-01-10T12:04:31;39.72;33.90;49.12;;
37833;Laerm;23678;48.778;9.160;2024-01-10T12:07:16;39.99;33.44;48.12;;
37833;Laerm;23678;48.778;9.160;2024-01-10T12:12:36;40.09;35.04;48.66;;
37833;Laerm;23678;48.778;9.160;2024-01-10T12:15:21;40.18;33.44;53.77;;
37833;Laerm;23678;48.778;9.160;2024-01-10T12:18:05;39.18;32.93;44.23;;
37833;Laerm;23678;48.778;9.160;2024-01-10T12:20:49;40.75;34.31;50.34;;
37833;Laerm;23678;48.778;9.160;2024-01-10T12:23:34;39.08;33.44;43.14;;
37833;Laerm;23678;48.778;9.160;2024-01-10T12:26:18;39.41;33.90;44.03;;
37833;Laerm;23678;48.778;9.160;2024-01-10T12:29:02;40.39;33.90;56.56;;
37833;Laerm;23678;48.778;9.160;2024-01-10T12:31:49;40.40;32.93;51.50;;
37833;Laerm;23678;48.778;9.160;2024-01-10T12:34:36;40.67;34.31;47.46;;
37833;Laerm;23678;48.778;9.160;2024-01-10T12:37:21;40.85;32.93;55.05;;
37833;Laerm;23678;48.778;9.160;2024-01-10T12:40:06;40.00;33.44;48.58;;
37833;Laerm;23678;48.778;9.160;2024-01-10T12:43:01;38.87;32.93;46.25;;
37833;Laerm;23678;48.778;9.160;2024-01-10T12:48:57;42.36;33.90;50.47;;
37833;Laerm;23678;48.778;9.160;2024-01-10T12:51:41;43.44;35.36;65.57;;
37833;Laerm;23678;48.778;9.160;2024-01-10T12:54:25;41.22;33.44;51.80;;
37833;Laerm;23678;48.778;9.160;2024-01-10T12:57:09;40.24;34.69;48.67;;
37833;Laerm;23678;48.778;9.160;2024-01-10T12:59:53;39.71;33.90;50.55;;
37833;Laerm;23678;48.778;9.160;2024-01-10T13:02:37;39.25;33.90;44.80;;
37833;Laerm;23678;48.778;9.160;2024-01-10T13:05:21;41.24;33.90;51.33;;
37833;Laerm;23678;48.778;9.160;2024-01-10T13:08:05;41.90;35.36;54.55;;
37833;Laerm;23678;48.778;9.160;2024-01-10T13:10:50;40.51;34.69;53.19;;
37833;Laerm;23678;48.778;9.160;2024-01-10T13:13:37;40.37;33.90;48.51;;
37833;Laerm;23678;48.778;9.160;2024-01-10T13:16:22;40.14;33.90;47.24;;
37833;Laerm;23678;48.778;9.160;2024-01-10T13:19:08;40.98;34.31;51.31;;
37833;Laerm;23678;48.778;9.160;2024-01-10T13:21:53;43.45;33.44;58.62;;
37833;Laerm;23678;48.778;9.160;2024-01-10T13:24:39;39.51;32.93;51.56;;
37833;Laerm;23678;48.778;9.160;2024-01-10T13:29:57;40.84;34.31;51.41;;
37833;Laerm;23678;48.778;9.160;2024-01-10T13:32:50;38.87;32.93;49.95;;
37833;Laerm;23678;48.778;9.160;2024-01-10T13:35:35;44.99;33.09;66.69;;
37833;Laerm;23678;48.778;9.160;2024-01-10T13:38:19;42.63;34.31;51.67;;
37833;Laerm;23678;48.778;9.160;2024-01-10T13:41:06;39.92;34.69;48.92;;
37833;Laerm;23678;48.778;9.160;2024-01-10T13:43:50;40.34;34.31;55.36;;
37833;Laerm;23678;48.778;9.160;2024-01-10T13:46:36;40.62;32.93;50.76;;
37833;Laerm;23678;48.778;9.160;2024-01-10T13:49:20;39.31;32.35;52.05;;
37833;Laerm;23678;48.778;9.160;2024-01-10T13:52:05;40.32;33.90;66.46;;
37833;Laerm;23678;48.778;9.160;2024-01-10T13:54:49;39.73;32.35;53.65;;
37833;Laerm;23678;48.778;9.160;2024-01-10T13:57:34;38.86;33.90;44.07;;
37833;Laerm;23678;48.778;9.160;2024-01-10T14:00:19;39.67;34.31;44.54;;
37833;Laerm;23678;48.778;9.160;2024-01-10T14:03:06;41.05;34.69;59.33;;
37833;Laerm;23678;48.778;9.160;2024-01-10T14:08:25;42.15;34.31;57.42;;
37833;Laerm;23678;48.778;9.160;2024-01-10T14:11:10;40.53;33.90;56.25;;
37833;Laerm;23678;48.778;9.160;2024-01-10T14:13:58;41.06;35.36;55.18;;
37833;Laerm;23678;48.778;9.160;2024-01-10T14:16:59;41.13;33.44;55.22;;
37833;Laerm;23678;48.778;9.160;2024-01-10T14:19:51;40.95;32.93;56.72;;
37833;Laerm;23678;48.778;9.160;2024-01-10T14:22:38;43.84;35.36;57.72;;
37833;Laerm;23678;48.778;9.160;2024-01-10T14:25:25;41.76;35.36;51.60;;
37833;Laerm;23678;48.778;9.160;2024-01-10T14:28:13;40.50;33.90;49.27;;
37833;Laerm;23678;48.778;9.160;2024-01-10T14:30:57;41.30;33.90;53.95;;
37833;Laerm;23678;48.778;9.160;2024-01-10T15:06:32;41.02;35.04;49.21;;
37833;Laerm;23678;48.778;9.160;2024-01-10T15:09:20;40.56;34.31;47.24;;
37833;Laerm;23678;48.778;9.160;2024-01-10T15:12:06;44.98;38.21;52.86;;
37833;Laerm;23678;48.778;9.160;2024-01-10T15:14:56;41.96;33.90;54.99;;
37833;Laerm;23678;48.778;9.160;2024-01-10T15:17:47;41.43;33.97;49.35;;
37833;Laerm;23678;48.778;9.160;2024-01-10T15:31:05;40.19;33.90;50.68;;
37833;Laerm;23678;48.778;9.160;2024-01-10T15:37:17;41.90;32.93;57.50;;
37833;Laerm;23678;48.778;9.160;2024-01-10T15:40:08;39.56;34.69;45.17;;
37833;Laerm;23678;48.778;9.160;2024-01-10T15:50:57;42.35;35.04;54.96;;
37833;Laerm;23678;48.778;9.160;2024-01-10T15:53:42;40.72;33.90;52.34;;
37833;Laerm;23678;48.778;9.160;2024-01-10T15:56:29;40.43;32.93;47.68;;
37833;Laerm;23678;48.778;9.160;2024-01-10T15:59:14;41.66;34.31;53.52;;
37833;Laerm;23678;48.778;9.160;2024-01-10T16:01:58;41.13;34.31;53.02;;
37833;Laerm;23678;48.778;9.160;2024-01-10T16:04:45;41.16;33.90;51.65;;
37833;Laerm;23678;48.778;9.160;2024-01-10T16:07:29;40.64;33.44;50.36;;
37833;Laerm;23678;48.778;9.160;2024-01-10T16:10:13;40.72;33.90;51.67;;
37833;Laerm;23678;48.778;9.160;2024-01-10T16:12:57;40.52;32.93;51.24;;
37833;Laerm;23678;48.778;9.160;2024-01-10T16:15:41;41.06;35.04;51.36;;
37833;Laerm;23678;48.778;9.160;2024-01-10T16:18:27;40.23;34.31;50.70;;
37833;Laerm;23678;48.778;9.160;2024-01-10T16:21:11;41.41;34.69;51.22;;
37833;Laerm;23678;48.778;9.160;2024-01-10T16:23:55;42.70;34.31;65.80;;
37833;Laerm;23678;48.778;9.160;2024-01-10T16:26:40;41.74;33.44;52.46;;
37833;Laerm;23678;48.778;9.160;2024-01-10T16:29:24;39.97;33.90;48.60;;
37833;Laerm;23678;48.778;9.160;2024-01-10T16:32:11;41.50;34.69;59.57;;
37833;Laerm;23678;48.778;9.160;2024-01-10T16:37:31;40.87;35.04;48.29;;
37833;Laerm;23678;48.778;9.160;2024-01-10T16:45:26;40.85;35.36;51.39;;
37833;Laerm;23678;48.778;9.160;2024-01-10T16:48:20;41.48;34.31;53.83;;
37833;Laerm;23678;48.778;9.160;2024-01-10T16:51:08;40.89;34.69;51.27;;
37833;Laerm;23678;48.778;9.160;2024-01-10T16:56:32;40.85;33.90;48.40;;
37833;Laerm;23678;48.778;9.160;2024-01-10T17:09:37;42.69;36.69;59.51;;
37833;Laerm;23678;48.778;9.160;2024-01-10T17:12:23;42.08;33.90;61.17;;
37833;Laerm;23678;48.778;9.160;2024-01-10T17:23:02;42.06;34.31;59.15;;